createdAt,value
2022-07-31T00:00:30.266Z,2.40
2022-07-31T00:01:29.262Z,2.60
2022-07-31T00:02:29.245Z,2.70
2022-07-31T00:03:29.310Z,2.80
2022-07-31T00:04:29.226Z,2.90
2022-07-31T00:05:29.240Z,2.90
2022-07-31T00:06:29.204Z,2.50
2022-07-31T00:07:29.196Z,2.70
2022-07-31T00:08:29.199Z,2.60
2022-07-31T00:09:49.210Z,2.60
2022-07-31T00:10:30.168Z,3.20
2022-07-31T00:11:29.146Z,2.60
2022-07-31T00:12:29.160Z,2.80
2022-07-31T00:13:56.361Z,2.50
2022-07-31T00:14:30.117Z,2.80
2022-07-31T00:15:29.098Z,2.40
2022-07-31T00:16:29.111Z,2.50
2022-07-31T00:17:29.071Z,2.70
2022-07-31T00:18:29.083Z,2.70
2022-07-31T00:19:29.052Z,2.40
2022-07-31T00:20:29.053Z,2.70
2022-07-31T00:21:29.032Z,2.50
2022-07-31T00:22:29.032Z,2.90
2022-07-31T00:23:29.044Z,2.60
2022-07-31T00:24:30.192Z,2.40
2022-07-31T00:25:29.012Z,3.00
2022-07-31T00:26:28.991Z,2.30
2022-07-31T00:27:28.972Z,2.70
2022-07-31T00:28:28.984Z,2.70
2022-07-31T00:29:28.945Z,2.40
2022-07-31T00:30:28.934Z,2.80
2022-07-31T00:31:28.926Z,2.70
2022-07-31T00:32:28.924Z,2.60
2022-07-31T00:33:28.906Z,2.50
2022-07-31T00:34:28.895Z,2.40
2022-07-31T00:35:28.877Z,2.50
2022-07-31T00:36:30.120Z,2.80
2022-07-31T00:37:28.851Z,2.50
2022-07-31T00:38:28.863Z,2.80
2022-07-31T00:39:28.836Z,2.50
2022-07-31T00:40:28.907Z,2.70
2022-07-31T00:41:28.816Z,2.70
2022-07-31T00:42:28.818Z,2.70
2022-07-31T00:43:30.795Z,2.70
2022-07-31T00:44:28.800Z,2.80
2022-07-31T00:45:29.081Z,2.40
2022-07-31T00:46:28.783Z,2.90
2022-07-31T00:47:28.750Z,2.70
2022-07-31T00:48:28.769Z,2.50
2022-07-31T00:49:37.849Z,2.60
2022-07-31T00:50:29.722Z,2.90
2022-07-31T00:51:28.713Z,2.80
2022-07-31T00:52:28.701Z,2.90
2022-07-31T00:53:28.699Z,2.80
2022-07-31T00:54:28.674Z,2.90
2022-07-31T00:55:28.655Z,2.30
2022-07-31T00:56:28.664Z,2.70
2022-07-31T00:57:28.636Z,2.80
2022-07-31T00:58:28.647Z,2.80
2022-07-31T00:59:28.625Z,2.60
2022-07-31T01:00:28.617Z,2.70
2022-07-31T01:01:28.669Z,2.70
2022-07-31T01:02:28.613Z,2.70
2022-07-31T01:03:28.608Z,2.70
2022-07-31T01:04:28.561Z,2.90
2022-07-31T01:05:28.540Z,3.00
2022-07-31T01:06:28.547Z,2.70
2022-07-31T01:07:28.520Z,2.60
2022-07-31T01:08:28.530Z,2.70
2022-07-31T01:09:28.501Z,2.60
2022-07-31T01:10:28.504Z,2.90
2022-07-31T01:11:28.471Z,2.90
2022-07-31T01:12:28.472Z,2.70
2022-07-31T01:13:28.482Z,3.00
2022-07-31T01:14:28.463Z,2.60
2022-07-31T01:15:28.433Z,2.50
2022-07-31T01:16:28.425Z,2.40
2022-07-31T01:17:28.414Z,2.70
2022-07-31T01:18:28.415Z,2.70
2022-07-31T01:19:38.124Z,2.60
2022-07-31T01:20:29.386Z,2.50
2022-07-31T01:21:28.375Z,2.50
2022-07-31T01:22:32.999Z,2.40
2022-07-31T01:23:29.375Z,2.80
2022-07-31T01:24:28.346Z,2.90
2022-07-31T01:25:28.343Z,2.50
2022-07-31T01:26:28.320Z,2.80
2022-07-31T01:27:28.307Z,2.80
2022-07-31T01:28:28.318Z,2.70
2022-07-31T01:29:28.279Z,2.70
2022-07-31T01:30:30.754Z,2.30
2022-07-31T01:31:28.298Z,2.80
2022-07-31T01:32:28.253Z,2.70
2022-07-31T01:33:28.259Z,2.40
2022-07-31T01:34:28.231Z,2.60
2022-07-31T01:35:28.219Z,2.40
2022-07-31T01:36:28.211Z,2.60
2022-07-31T01:37:28.191Z,2.50
2022-07-31T01:38:28.241Z,2.60
2022-07-31T01:39:28.180Z,2.50
2022-07-31T01:40:29.173Z,2.70
2022-07-31T01:41:28.144Z,2.70
2022-07-31T01:42:28.153Z,2.40
2022-07-31T01:43:28.144Z,2.40
2022-07-31T01:44:28.148Z,2.60
2022-07-31T01:45:28.091Z,2.70
2022-07-31T01:46:28.092Z,2.40
2022-07-31T01:47:28.078Z,2.50
2022-07-31T01:48:28.083Z,2.40
2022-07-31T01:49:28.129Z,2.40
2022-07-31T01:50:43.720Z,2.50
2022-07-31T01:51:29.045Z,2.70
2022-07-31T01:52:28.049Z,2.50
2022-07-31T01:53:28.029Z,2.30
2022-07-31T01:54:28.009Z,2.40
2022-07-31T01:55:27.987Z,2.70
2022-07-31T01:56:27.977Z,2.80
2022-07-31T01:57:27.965Z,2.50
2022-07-31T01:58:27.969Z,2.80
2022-07-31T01:59:27.959Z,2.50
2022-07-31T02:00:34.169Z,2.40
2022-07-31T02:01:28.945Z,2.60
2022-07-31T02:02:27.931Z,2.50
2022-07-31T02:03:43.485Z,2.30
2022-07-31T02:04:28.911Z,2.60
2022-07-31T02:05:27.871Z,2.40
2022-07-31T02:06:27.877Z,2.50
2022-07-31T02:07:27.853Z,2.30
2022-07-31T02:08:27.861Z,2.60
2022-07-31T02:09:27.829Z,2.50
2022-07-31T02:11:54.568Z,2.80
2022-07-31T02:12:46.381Z,2.40
2022-07-31T02:13:46.129Z,2.60
2022-07-31T02:14:45.360Z,2.40
2022-07-31T02:15:45.360Z,2.80
2022-07-31T02:16:45.348Z,2.30
2022-07-31T02:17:45.317Z,2.50
2022-07-31T02:18:45.328Z,2.60
2022-07-31T02:19:52.530Z,2.70
2022-07-31T02:20:46.289Z,2.40
2022-07-31T02:21:45.281Z,2.90
2022-07-31T02:22:45.272Z,2.60
2022-07-31T02:23:45.270Z,2.80
2022-07-31T02:24:45.241Z,2.60
2022-07-31T02:25:45.237Z,2.80
2022-07-31T02:26:45.223Z,2.60
2022-07-31T02:27:54.098Z,2.60
2022-07-31T02:28:46.224Z,2.50
2022-07-31T02:29:45.183Z,2.80
2022-07-31T02:30:45.195Z,2.50
2022-07-31T02:31:45.174Z,2.40
2022-07-31T02:32:45.153Z,2.40
2022-07-31T02:33:45.153Z,2.70
2022-07-31T02:34:45.135Z,2.50
2022-07-31T02:35:45.329Z,2.50
2022-07-31T02:36:45.115Z,2.60
2022-07-31T02:37:45.121Z,2.60
2022-07-31T02:38:45.099Z,2.90
2022-07-31T02:39:45.076Z,2.60
2022-07-31T02:40:45.081Z,2.50
2022-07-31T02:41:45.047Z,2.40
2022-07-31T02:42:45.050Z,2.40
2022-07-31T02:43:45.055Z,2.60
2022-07-31T02:44:45.026Z,2.60
2022-07-31T02:45:45.008Z,2.70
2022-07-31T02:46:45.003Z,2.70
2022-07-31T02:47:44.990Z,2.40
2022-07-31T02:48:45.023Z,2.30
2022-07-31T02:49:44.960Z,2.40
2022-07-31T02:50:44.950Z,2.60
2022-07-31T02:51:44.941Z,2.70
2022-07-31T02:52:44.930Z,2.20
2022-07-31T02:53:44.931Z,2.60
2022-07-31T02:54:44.914Z,2.50
2022-07-31T02:55:44.892Z,2.80
2022-07-31T02:56:44.893Z,2.50
2022-07-31T02:57:44.874Z,2.50
2022-07-31T02:58:44.873Z,2.40
2022-07-31T02:59:44.864Z,2.80
2022-07-31T03:00:44.875Z,2.60
2022-07-31T03:01:44.824Z,2.30
2022-07-31T03:02:44.825Z,2.70
2022-07-31T03:03:44.833Z,2.50
2022-07-31T03:04:44.804Z,2.40
2022-07-31T03:05:44.797Z,2.40
2022-07-31T03:06:44.766Z,2.50
2022-07-31T03:07:44.761Z,2.30
2022-07-31T03:08:44.788Z,2.70
2022-07-31T03:09:44.746Z,2.50
2022-07-31T03:10:44.729Z,2.40
2022-07-31T03:11:44.718Z,2.70
2022-07-31T03:12:44.709Z,2.50
2022-07-31T03:13:44.710Z,2.30
2022-07-31T03:14:44.687Z,2.50
2022-07-31T03:15:50.939Z,2.60
2022-07-31T03:16:45.660Z,2.40
2022-07-31T03:17:44.651Z,2.30
2022-07-31T03:18:44.685Z,2.50
2022-07-31T03:19:44.632Z,2.50
2022-07-31T03:20:44.619Z,2.60
2022-07-31T03:21:44.602Z,2.50
2022-07-31T03:22:44.602Z,2.40
2022-07-31T03:23:44.593Z,2.40
2022-07-31T03:24:44.574Z,2.70
2022-07-31T03:25:44.562Z,2.50
2022-07-31T03:26:44.557Z,2.60
2022-07-31T03:27:44.544Z,2.40
2022-07-31T03:28:45.547Z,2.20
2022-07-31T03:29:44.527Z,2.50
2022-07-31T03:30:44.513Z,2.60
2022-07-31T03:31:44.496Z,2.30
2022-07-31T03:32:44.506Z,2.40
2022-07-31T03:33:44.471Z,2.40
2022-07-31T03:34:44.468Z,2.60
2022-07-31T03:35:44.690Z,2.50
2022-07-31T03:36:44.447Z,2.30
2022-07-31T03:37:44.437Z,2.60
2022-07-31T03:38:47.637Z,2.80
2022-07-31T03:39:45.407Z,2.20
2022-07-31T03:40:44.399Z,2.40
2022-07-31T03:41:44.379Z,2.50
2022-07-31T03:42:44.390Z,2.60
2022-07-31T03:43:47.873Z,2.40
2022-07-31T03:44:44.351Z,2.60
2022-07-31T03:45:44.330Z,2.30
2022-07-31T03:46:44.372Z,2.30
2022-07-31T03:47:44.332Z,2.50
2022-07-31T03:48:44.494Z,2.40
2022-07-31T03:49:44.291Z,2.40
2022-07-31T03:50:44.285Z,2.40
2022-07-31T03:51:44.264Z,2.40
2022-07-31T03:52:44.294Z,2.50
2022-07-31T03:53:44.247Z,2.50
2022-07-31T03:54:44.236Z,2.80
2022-07-31T03:55:44.226Z,2.50
2022-07-31T03:56:45.328Z,2.40
2022-07-31T03:57:44.222Z,2.40
2022-07-31T03:58:48.030Z,2.40
2022-07-31T03:59:48.334Z,2.50
2022-07-31T04:00:44.179Z,2.40
2022-07-31T04:01:58.397Z,2.60
2022-07-31T04:02:45.258Z,2.50
2022-07-31T04:03:44.138Z,2.40
2022-07-31T04:04:44.128Z,2.60
2022-07-31T04:05:44.115Z,2.40
2022-07-31T04:06:44.100Z,2.30
2022-07-31T04:07:44.110Z,2.50
2022-07-31T04:08:44.090Z,2.20
2022-07-31T04:09:44.059Z,2.30
2022-07-31T04:10:44.063Z,2.50
2022-07-31T04:11:44.059Z,2.20
2022-07-31T04:12:44.061Z,2.40
2022-07-31T04:13:44.053Z,2.40
2022-07-31T04:14:44.035Z,2.50
2022-07-31T04:15:44.003Z,2.60
2022-07-31T04:16:44.003Z,2.50
2022-07-31T04:17:43.993Z,2.30
2022-07-31T04:18:50.647Z,2.40
2022-07-31T04:19:44.962Z,2.40
2022-07-31T04:20:43.954Z,2.40
2022-07-31T04:21:43.936Z,2.30
2022-07-31T04:22:43.944Z,2.10
2022-07-31T04:23:48.900Z,2.60
2022-07-31T04:24:44.921Z,2.50
2022-07-31T04:25:43.913Z,2.40
2022-07-31T04:26:43.897Z,2.40
2022-07-31T04:27:45.680Z,2.50
2022-07-31T04:28:43.857Z,2.60
2022-07-31T04:29:43.865Z,2.30
2022-07-31T04:30:43.868Z,2.40
2022-07-31T04:31:43.837Z,2.80
2022-07-31T04:32:43.829Z,2.20
2022-07-31T04:33:46.611Z,2.60
2022-07-31T04:34:44.818Z,2.30
2022-07-31T04:35:43.780Z,2.40
2022-07-31T04:36:43.784Z,2.70
2022-07-31T04:37:48.572Z,2.70
2022-07-31T04:38:44.775Z,2.40
2022-07-31T04:39:43.731Z,2.40
2022-07-31T04:40:43.734Z,2.60
2022-07-31T04:41:43.711Z,2.30
2022-07-31T04:42:43.719Z,2.40
2022-07-31T04:43:43.692Z,2.70
2022-07-31T04:44:43.683Z,2.50
2022-07-31T04:45:43.664Z,2.40
2022-07-31T04:46:43.662Z,2.70
2022-07-31T04:47:43.664Z,2.40
2022-07-31T04:48:43.659Z,2.70
2022-07-31T04:49:43.635Z,2.50
2022-07-31T04:50:43.631Z,2.30
2022-07-31T04:51:43.608Z,2.50
2022-07-31T04:52:43.615Z,2.40
2022-07-31T04:53:43.625Z,2.50
2022-07-31T04:54:43.574Z,2.40
2022-07-31T04:55:43.575Z,2.70
2022-07-31T04:56:43.572Z,2.50
2022-07-31T04:57:43.538Z,2.70
2022-07-31T04:58:43.530Z,2.60
2022-07-31T04:59:59.294Z,2.70
2022-07-31T05:00:44.507Z,2.50
2022-07-31T05:01:43.588Z,2.70
2022-07-31T05:02:43.494Z,2.40
2022-07-31T05:03:43.471Z,2.50
2022-07-31T05:04:43.470Z,2.40
2022-07-31T05:05:43.463Z,2.30
2022-07-31T05:06:43.467Z,2.60
2022-07-31T05:07:43.432Z,2.60
2022-07-31T05:08:43.429Z,2.50
2022-07-31T05:09:43.413Z,2.80
2022-07-31T05:10:43.401Z,2.50
2022-07-31T05:11:43.412Z,2.40
2022-07-31T05:12:43.384Z,2.20
2022-07-31T05:13:43.354Z,2.50
2022-07-31T05:14:43.360Z,2.40
2022-07-31T05:15:43.335Z,2.50
2022-07-31T05:16:43.356Z,2.40
2022-07-31T05:17:43.339Z,2.50
2022-07-31T05:18:43.307Z,2.40
2022-07-31T05:19:43.295Z,2.70
2022-07-31T05:20:43.304Z,2.40
2022-07-31T05:21:52.965Z,2.10
2022-07-31T05:22:44.265Z,2.30
2022-07-31T05:23:43.258Z,2.60
2022-07-31T05:24:43.245Z,2.60
2022-07-31T05:25:43.221Z,2.60
2022-07-31T05:26:43.228Z,2.50
2022-07-31T05:27:43.210Z,2.90
2022-07-31T05:28:43.222Z,2.60
2022-07-31T05:29:43.184Z,2.70
2022-07-31T05:30:43.170Z,2.70
2022-07-31T05:32:00.638Z,2.60
2022-07-31T05:32:44.170Z,2.60
2022-07-31T05:33:43.141Z,2.50
2022-07-31T05:34:43.125Z,2.40
2022-07-31T05:35:43.132Z,3.00
2022-07-31T05:36:43.113Z,2.70
2022-07-31T05:37:43.092Z,2.80
2022-07-31T05:38:43.082Z,2.60
2022-07-31T05:39:43.090Z,2.70
2022-07-31T05:40:43.065Z,2.70
2022-07-31T05:41:43.065Z,2.60
2022-07-31T05:42:43.044Z,2.50
2022-07-31T05:43:43.047Z,2.50
2022-07-31T05:44:43.015Z,2.60
2022-07-31T05:45:43.004Z,2.80
2022-07-31T05:46:43.025Z,2.60
2022-07-31T05:47:42.976Z,3.10
2022-07-31T05:48:42.966Z,2.80
2022-07-31T05:49:42.948Z,2.90
2022-07-31T05:50:42.947Z,2.80
2022-07-31T05:51:42.960Z,2.60
2022-07-31T05:52:42.926Z,2.60
2022-07-31T05:53:45.719Z,2.80
2022-07-31T05:54:42.898Z,2.60
2022-07-31T05:55:42.919Z,2.70
2022-07-31T05:56:42.901Z,2.70
2022-07-31T05:57:42.880Z,2.80
2022-07-31T05:58:42.906Z,2.70
2022-07-31T05:59:43.850Z,3.00
2022-07-31T06:00:42.861Z,2.60
2022-07-31T06:01:42.903Z,2.70
2022-07-31T06:02:42.839Z,2.80
2022-07-31T06:03:51.946Z,2.90
2022-07-31T06:04:43.803Z,2.70
2022-07-31T06:05:42.801Z,2.90
2022-07-31T06:06:42.776Z,2.50
2022-07-31T06:07:47.242Z,2.80
2022-07-31T06:08:43.744Z,2.50
2022-07-31T06:09:42.735Z,2.70
2022-07-31T06:10:42.735Z,2.60
2022-07-31T06:11:42.714Z,3.10
2022-07-31T06:12:42.707Z,2.60
2022-07-31T06:13:42.695Z,2.70
2022-07-31T06:14:42.676Z,2.70
2022-07-31T06:15:49.106Z,3.00
2022-07-31T06:16:43.667Z,3.00
2022-07-31T06:17:44.548Z,2.80
2022-07-31T06:18:42.638Z,2.60
2022-07-31T06:19:42.629Z,3.10
2022-07-31T06:20:42.629Z,2.90
2022-07-31T06:21:42.597Z,2.90
2022-07-31T06:22:42.588Z,2.70
2022-07-31T06:23:42.574Z,2.90
2022-07-31T06:24:42.704Z,2.70
2022-07-31T06:25:42.573Z,2.70
2022-07-31T06:26:42.549Z,2.90
2022-07-31T06:27:42.540Z,2.90
2022-07-31T06:28:48.728Z,2.40
2022-07-31T06:29:44.472Z,2.80
2022-07-31T06:30:42.512Z,2.90
2022-07-31T06:31:42.499Z,2.80
2022-07-31T06:32:42.484Z,3.00
2022-07-31T06:33:42.462Z,2.90
2022-07-31T06:34:43.454Z,2.80
2022-07-31T06:35:42.465Z,2.70
2022-07-31T06:36:42.436Z,2.60
2022-07-31T06:37:42.434Z,3.20
2022-07-31T06:38:42.416Z,3.00
2022-07-31T06:39:54.264Z,2.70
2022-07-31T06:40:43.429Z,2.80
2022-07-31T06:41:42.387Z,2.50
2022-07-31T06:42:42.364Z,2.80
2022-07-31T06:43:42.359Z,2.70
2022-07-31T06:44:45.950Z,2.90
2022-07-31T06:45:52.163Z,2.60
2022-07-31T06:46:49.110Z,2.70
2022-07-31T06:47:43.329Z,2.90
2022-07-31T06:48:42.297Z,3.10
2022-07-31T06:49:42.340Z,2.70
2022-07-31T06:50:42.289Z,2.90
2022-07-31T06:51:42.269Z,2.60
2022-07-31T06:52:42.260Z,2.90
2022-07-31T06:53:42.263Z,3.00
2022-07-31T06:54:42.230Z,2.90
2022-07-31T06:55:44.110Z,3.00
2022-07-31T06:56:42.213Z,2.90
2022-07-31T06:57:42.222Z,3.00
2022-07-31T06:58:42.192Z,2.90
2022-07-31T06:59:42.174Z,3.10
2022-07-31T07:00:42.180Z,2.90
2022-07-31T07:01:42.222Z,2.80
2022-07-31T07:02:42.145Z,2.90
2022-07-31T07:03:42.134Z,2.90
2022-07-31T07:05:05.092Z,2.90
2022-07-31T07:05:45.444Z,2.90
2022-07-31T07:06:42.095Z,2.80
2022-07-31T07:07:42.096Z,2.90
2022-07-31T07:08:42.089Z,3.20
2022-07-31T07:09:42.081Z,3.10
2022-07-31T07:10:42.077Z,3.00
2022-07-31T07:11:42.050Z,2.90
2022-07-31T07:12:42.027Z,2.70
2022-07-31T07:13:46.050Z,2.90
2022-07-31T07:14:42.016Z,3.00
2022-07-31T07:15:42.013Z,2.60
2022-07-31T07:16:41.992Z,2.90
2022-07-31T07:17:41.981Z,2.90
2022-07-31T07:18:41.962Z,2.80
2022-07-31T07:19:41.958Z,2.80
2022-07-31T07:20:41.972Z,2.90
2022-07-31T07:21:41.942Z,3.00
2022-07-31T07:22:41.931Z,2.90
2022-07-31T07:23:41.911Z,2.90
2022-07-31T07:24:41.895Z,2.80
2022-07-31T07:25:41.912Z,3.00
2022-07-31T07:26:41.880Z,3.00
2022-07-31T07:27:41.893Z,3.10
2022-07-31T07:28:41.859Z,3.00
2022-07-31T07:29:41.854Z,3.20
2022-07-31T07:30:41.844Z,3.10
2022-07-31T07:31:41.825Z,2.70
2022-07-31T07:32:41.819Z,3.00
2022-07-31T07:33:42.964Z,2.90
2022-07-31T07:34:41.786Z,3.00
2022-07-31T07:35:41.801Z,3.00
2022-07-31T07:36:41.775Z,3.00
2022-07-31T07:37:41.766Z,2.70
2022-07-31T07:38:41.747Z,2.90
2022-07-31T07:39:41.739Z,3.00
2022-07-31T07:40:41.736Z,2.70
2022-07-31T07:41:41.720Z,2.90
2022-07-31T07:42:41.708Z,2.80
2022-07-31T07:43:41.727Z,3.00
2022-07-31T07:44:41.679Z,2.80
2022-07-31T07:45:41.703Z,3.00
2022-07-31T07:46:41.650Z,2.90
2022-07-31T07:47:54.137Z,3.20
2022-07-31T07:48:42.629Z,3.00
2022-07-31T07:49:41.621Z,3.20
2022-07-31T07:50:41.625Z,3.10
2022-07-31T07:51:58.910Z,2.90
2022-07-31T07:52:43.995Z,2.80
2022-07-31T07:53:41.593Z,2.90
2022-07-31T07:54:41.572Z,2.80
2022-07-31T07:55:41.583Z,3.10
2022-07-31T07:56:41.542Z,3.10
2022-07-31T07:57:41.534Z,3.20
2022-07-31T07:58:41.514Z,3.10
2022-07-31T07:59:41.516Z,2.80
2022-07-31T08:00:41.618Z,3.10
2022-07-31T08:01:41.549Z,2.90
2022-07-31T08:02:41.485Z,2.90
2022-07-31T08:03:49.498Z,3.00
2022-07-31T08:04:47.197Z,3.00
2022-07-31T08:05:42.459Z,2.90
2022-07-31T08:06:41.450Z,3.10
2022-07-31T08:07:42.898Z,3.00
2022-07-31T08:08:41.410Z,2.90
2022-07-31T08:09:41.399Z,3.30
2022-07-31T08:10:41.437Z,3.30
2022-07-31T08:11:41.380Z,3.10
2022-07-31T08:12:41.382Z,3.00
2022-07-31T08:13:41.358Z,3.00
2022-07-31T08:14:41.340Z,3.00
2022-07-31T08:15:41.354Z,3.00
2022-07-31T08:16:41.321Z,3.20
2022-07-31T08:17:41.311Z,2.80
2022-07-31T08:18:41.302Z,2.90
2022-07-31T08:19:41.292Z,3.00
2022-07-31T08:20:41.328Z,3.10
2022-07-31T08:21:41.263Z,3.10
2022-07-31T08:22:41.255Z,2.60
2022-07-31T08:23:41.255Z,3.10
2022-07-31T08:24:41.236Z,2.80
2022-07-31T08:25:41.234Z,2.60
2022-07-31T08:26:41.213Z,2.90
2022-07-31T08:27:41.214Z,2.90
2022-07-31T08:28:41.291Z,2.90
2022-07-31T08:29:41.186Z,2.70
2022-07-31T08:30:41.188Z,2.90
2022-07-31T08:31:41.157Z,2.90
2022-07-31T08:32:42.156Z,2.60
2022-07-31T08:33:41.140Z,2.70
2022-07-31T08:34:42.241Z,3.00
2022-07-31T08:35:41.131Z,2.80
2022-07-31T08:36:41.108Z,2.70
2022-07-31T08:37:52.564Z,2.60
2022-07-31T08:38:42.086Z,2.70
2022-07-31T08:39:41.100Z,2.90
2022-07-31T08:40:42.746Z,2.50
2022-07-31T08:41:41.043Z,3.00
2022-07-31T08:42:41.033Z,3.00
2022-07-31T08:44:02.961Z,3.00
2022-07-31T08:44:42.010Z,3.00
2022-07-31T08:45:41.027Z,3.10
2022-07-31T08:46:40.996Z,3.00
2022-07-31T08:47:40.999Z,3.00
2022-07-31T08:48:40.973Z,2.90
2022-07-31T08:49:41.043Z,3.00
2022-07-31T08:50:40.957Z,3.20
2022-07-31T08:51:51.507Z,3.10
2022-07-31T08:52:41.935Z,3.00
2022-07-31T08:53:40.917Z,3.10
2022-07-31T08:54:40.895Z,2.90
2022-07-31T08:55:56.404Z,2.80
2022-07-31T08:56:41.887Z,2.90
2022-07-31T08:57:40.876Z,3.10
2022-07-31T08:58:40.856Z,3.20
2022-07-31T08:59:40.846Z,3.10
2022-07-31T09:00:40.911Z,2.80
2022-07-31T09:01:41.710Z,3.10
2022-07-31T09:02:41.008Z,3.00
2022-07-31T09:03:40.818Z,3.30
2022-07-31T09:04:41.739Z,3.30
2022-07-31T09:05:42.301Z,3.20
2022-07-31T09:06:40.769Z,3.30
2022-07-31T09:07:40.960Z,3.40
2022-07-31T09:08:40.768Z,2.90
2022-07-31T09:09:50.257Z,2.90
2022-07-31T09:10:45.023Z,3.20
2022-07-31T09:11:41.710Z,3.40
2022-07-31T09:12:40.712Z,3.30
2022-07-31T09:13:40.691Z,3.30
2022-07-31T09:14:41.563Z,3.10
2022-07-31T09:15:40.673Z,3.40
2022-07-31T09:16:40.653Z,2.90
2022-07-31T09:17:40.680Z,3.20
2022-07-31T09:18:42.414Z,3.00
2022-07-31T09:19:53.443Z,3.10
2022-07-31T09:20:41.616Z,3.20
2022-07-31T09:21:40.609Z,3.50
2022-07-31T09:22:40.597Z,3.00
2022-07-31T09:23:40.587Z,3.20
2022-07-31T09:24:40.640Z,3.00
2022-07-31T09:25:40.568Z,3.30
2022-07-31T09:26:40.549Z,3.00
2022-07-31T09:27:40.555Z,2.80
2022-07-31T09:28:40.544Z,3.00
2022-07-31T09:29:41.280Z,2.90
2022-07-31T09:30:56.094Z,2.90
2022-07-31T09:31:41.608Z,2.80
2022-07-31T09:32:41.260Z,2.70
2022-07-31T09:33:45.557Z,2.80
2022-07-31T09:34:41.222Z,3.30
2022-07-31T09:35:41.590Z,3.00
2022-07-31T09:36:41.241Z,2.80
2022-07-31T09:37:40.425Z,3.40
2022-07-31T09:38:40.412Z,2.90
2022-07-31T09:39:50.177Z,2.80
2022-07-31T09:40:55.371Z,2.80
2022-07-31T09:42:01.007Z,2.80
2022-07-31T09:42:46.094Z,2.80
2022-07-31T09:43:46.154Z,2.90
2022-07-31T09:44:42.125Z,2.90
2022-07-31T09:45:48.402Z,3.00
2022-07-31T09:46:42.112Z,2.50
2022-07-31T09:47:40.333Z,2.60
2022-07-31T09:48:41.094Z,2.50
2022-07-31T09:49:40.368Z,2.60
2022-07-31T09:50:40.275Z,2.70
2022-07-31T09:51:40.276Z,2.70
2022-07-31T09:52:40.272Z,2.80
2022-07-31T09:53:43.377Z,2.70
2022-07-31T09:54:40.249Z,2.50
2022-07-31T09:55:40.229Z,2.20
2022-07-31T09:56:40.218Z,2.40
2022-07-31T09:57:40.222Z,2.40
2022-07-31T09:58:41.199Z,2.40
2022-07-31T09:59:40.207Z,2.70
2022-07-31T10:00:40.210Z,2.40
2022-07-31T10:01:40.158Z,2.30
2022-07-31T10:02:40.150Z,2.40
2022-07-31T10:03:41.486Z,2.40
2022-07-31T10:04:40.158Z,2.30
2022-07-31T10:05:40.122Z,2.20
2022-07-31T10:06:40.092Z,2.20
2022-07-31T10:07:40.101Z,2.70
2022-07-31T10:08:40.083Z,2.40
2022-07-31T10:09:40.101Z,2.50
2022-07-31T10:10:40.071Z,2.30
2022-07-31T10:11:40.053Z,2.10
2022-07-31T10:12:40.035Z,2.30
2022-07-31T10:13:40.533Z,2.40
2022-07-31T10:14:40.026Z,2.50
2022-07-31T10:15:40.005Z,2.30
2022-07-31T10:16:40.002Z,2.20
2022-07-31T10:17:41.453Z,2.20
2022-07-31T10:18:44.307Z,2.10
2022-07-31T10:19:39.977Z,2.30
2022-07-31T10:20:39.952Z,2.40
2022-07-31T10:21:39.929Z,2.20
2022-07-31T10:22:40.128Z,2.40
2022-07-31T10:23:39.925Z,2.00
2022-07-31T10:24:39.943Z,2.00
2022-07-31T10:25:39.904Z,2.00
2022-07-31T10:26:59.843Z,2.00
2022-07-31T10:27:40.858Z,2.50
2022-07-31T10:28:39.896Z,2.30
2022-07-31T10:29:40.613Z,2.00
2022-07-31T10:30:39.831Z,2.00
2022-07-31T10:31:40.613Z,2.20
2022-07-31T10:32:39.809Z,2.30
2022-07-31T10:33:44.407Z,2.20
2022-07-31T10:34:39.803Z,1.80
2022-07-31T10:35:39.772Z,2.10
2022-07-31T10:36:39.764Z,1.90
2022-07-31T10:37:39.766Z,2.10
2022-07-31T10:38:39.754Z,1.70
2022-07-31T10:39:39.744Z,2.00
2022-07-31T10:40:39.715Z,2.10
2022-07-31T10:41:39.705Z,1.90
2022-07-31T10:42:39.703Z,1.90
2022-07-31T10:43:39.684Z,1.90
2022-07-31T10:44:39.698Z,2.30
2022-07-31T10:45:39.678Z,1.90
2022-07-31T10:46:39.657Z,1.80
2022-07-31T10:47:39.637Z,1.90
2022-07-31T10:48:40.627Z,1.80
2022-07-31T10:49:39.699Z,2.00
2022-07-31T10:50:39.608Z,2.10
2022-07-31T10:51:39.597Z,2.00
2022-07-31T10:52:39.589Z,2.00
2022-07-31T10:53:50.107Z,2.10
2022-07-31T10:54:40.577Z,2.20
2022-07-31T10:55:39.557Z,2.30
2022-07-31T10:56:39.544Z,2.20
2022-07-31T10:57:55.421Z,2.40
2022-07-31T10:58:40.530Z,2.30
2022-07-31T10:59:44.516Z,2.10
2022-07-31T11:00:39.501Z,2.20
2022-07-31T11:01:39.536Z,2.20
2022-07-31T11:02:40.541Z,2.40
2022-07-31T11:03:39.485Z,2.20
2022-07-31T11:04:39.530Z,2.40
2022-07-31T11:06:02.685Z,2.30
2022-07-31T11:06:40.433Z,2.50
2022-07-31T11:07:39.424Z,2.20
2022-07-31T11:08:39.404Z,2.10
2022-07-31T11:09:51.007Z,2.20
2022-07-31T11:10:40.384Z,2.20
2022-07-31T11:11:39.378Z,2.00
2022-07-31T11:12:39.364Z,2.40
2022-07-31T11:13:39.577Z,2.10
2022-07-31T11:14:39.357Z,2.20
2022-07-31T11:15:39.326Z,2.40
2022-07-31T11:16:39.347Z,2.10
2022-07-31T11:18:23.180Z,2.10
2022-07-31T11:18:40.319Z,2.20
2022-07-31T11:19:41.235Z,2.40
2022-07-31T11:20:39.268Z,2.20
2022-07-31T11:21:39.867Z,2.20
2022-07-31T11:22:40.709Z,2.00
2022-07-31T11:23:39.237Z,2.00
2022-07-31T11:24:39.991Z,2.20
2022-07-31T11:25:39.212Z,2.00
2022-07-31T11:26:41.593Z,1.90
2022-07-31T11:27:39.979Z,2.20
2022-07-31T11:28:39.953Z,2.30
2022-07-31T11:30:00.200Z,2.10
2022-07-31T11:30:40.161Z,2.00
2022-07-31T11:31:39.142Z,2.10
2022-07-31T11:32:39.163Z,2.00
2022-07-31T11:33:42.198Z,2.20
2022-07-31T11:34:39.114Z,2.30
2022-07-31T11:35:39.104Z,2.20
2022-07-31T11:36:39.097Z,2.30
2022-07-31T11:37:46.163Z,2.30
2022-07-31T11:38:40.096Z,2.40
2022-07-31T11:39:39.055Z,2.10
2022-07-31T11:40:40.060Z,2.20
2022-07-31T11:41:44.633Z,2.10
2022-07-31T11:42:40.026Z,2.40
2022-07-31T11:43:39.028Z,2.10
2022-07-31T11:44:39.006Z,1.90
2022-07-31T11:45:39.012Z,2.20
2022-07-31T11:46:38.998Z,1.90
2022-07-31T11:48:11.202Z,2.10
2022-07-31T11:48:45.238Z,1.90
2022-07-31T11:49:49.003Z,2.00
2022-07-31T11:50:39.944Z,2.00
2022-07-31T11:51:38.946Z,2.30
2022-07-31T11:52:38.920Z,1.80
2022-07-31T11:53:38.911Z,2.10
2022-07-31T11:54:38.891Z,2.10
2022-07-31T11:55:39.670Z,2.50
2022-07-31T11:56:38.903Z,2.30
2022-07-31T11:57:51.820Z,2.30
2022-07-31T11:58:39.863Z,2.20
2022-07-31T11:59:46.018Z,2.00
2022-07-31T12:00:40.613Z,2.10
2022-07-31T12:01:40.840Z,1.90
2022-07-31T12:02:38.981Z,2.10
2022-07-31T12:03:38.821Z,2.10
2022-07-31T12:04:38.785Z,2.30
2022-07-31T12:05:39.541Z,2.00
2022-07-31T12:06:38.766Z,2.20
2022-07-31T12:07:38.746Z,2.20
2022-07-31T12:08:38.758Z,2.00
2022-07-31T12:10:02.509Z,2.00
2022-07-31T12:10:39.726Z,2.30
2022-07-31T12:11:38.717Z,2.20
2022-07-31T12:12:38.695Z,2.50
2022-07-31T12:13:38.698Z,2.50
2022-07-31T12:14:38.677Z,2.20
2022-07-31T12:15:38.668Z,2.30
2022-07-31T12:16:38.650Z,2.40
2022-07-31T12:17:38.640Z,2.40
2022-07-31T12:18:38.850Z,2.10
2022-07-31T12:19:38.756Z,2.40
2022-07-31T12:20:38.614Z,2.30
2022-07-31T12:21:38.591Z,2.10
2022-07-31T12:22:38.582Z,2.60
2022-07-31T12:23:41.501Z,2.30
2022-07-31T12:24:38.562Z,2.70
2022-07-31T12:25:38.561Z,2.60
2022-07-31T12:26:38.573Z,2.70
2022-07-31T12:27:38.986Z,2.50
2022-07-31T12:28:38.543Z,2.70
2022-07-31T12:29:38.504Z,2.30
2022-07-31T12:30:38.536Z,2.60
2022-07-31T12:31:38.483Z,2.60
2022-07-31T12:32:38.496Z,2.20
2022-07-31T12:33:39.252Z,2.20
2022-07-31T12:34:39.915Z,2.30
2022-07-31T12:35:54.816Z,2.50
2022-07-31T12:36:40.268Z,2.40
2022-07-31T12:37:38.536Z,3.60
2022-07-31T12:38:45.115Z,3.10
2022-07-31T12:39:54.464Z,2.70
2022-07-31T12:40:40.171Z,2.40
2022-07-31T12:41:39.214Z,2.50
2022-07-31T12:42:41.930Z,2.40
2022-07-31T12:43:38.385Z,2.60
2022-07-31T12:44:39.129Z,2.40
2022-07-31T12:45:38.500Z,2.30
2022-07-31T12:46:39.099Z,2.50
2022-07-31T12:47:38.311Z,2.40
2022-07-31T12:48:43.187Z,2.30
2022-07-31T12:49:40.097Z,2.10
2022-07-31T12:50:38.394Z,2.50
2022-07-31T12:51:45.180Z,2.20
2022-07-31T12:52:39.342Z,1.90
2022-07-31T12:53:39.000Z,2.10
2022-07-31T12:54:39.585Z,2.40
2022-07-31T12:55:39.006Z,2.50
2022-07-31T12:56:38.383Z,2.20
2022-07-31T12:57:44.634Z,2.40
2022-07-31T12:58:39.951Z,2.40
2022-07-31T12:59:39.636Z,2.40
2022-07-31T13:00:40.105Z,2.30
2022-07-31T13:01:38.968Z,2.10
2022-07-31T13:02:38.928Z,2.40
2022-07-31T13:03:45.729Z,1.90
2022-07-31T13:04:39.898Z,2.20
2022-07-31T13:05:38.908Z,2.40
2022-07-31T13:06:38.678Z,2.10
2022-07-31T13:07:38.869Z,2.30
2022-07-31T13:08:38.841Z,2.30
2022-07-31T13:09:38.059Z,2.80
2022-07-31T13:10:38.589Z,2.40
2022-07-31T13:11:46.389Z,2.40
2022-07-31T13:12:40.064Z,2.60
2022-07-31T13:13:38.143Z,2.30
2022-07-31T13:14:38.790Z,2.20
2022-07-31T13:15:39.044Z,2.10
2022-07-31T13:16:38.781Z,2.00
2022-07-31T13:17:43.541Z,1.70
2022-07-31T13:18:40.072Z,1.90
2022-07-31T13:19:38.694Z,1.90